ZF1EJ Savannah KY current weather conditions

sailwx.info

Wind from 095 at 0 knots gusting 1

Air temperature 23.3° C

Last reported at 2017-Apr-25 11:00 UTC.
Time now 2017-Apr-25 12:13 UTC

Location: N 19°16' W 081°18'.
View on Google Maps.

See reports from other nearby stations

  
Tides and Currents Weather Stations Pressure Air Temp Water Temp Dewpoint Dewpoint Depression Visibility Wind Speed Wind Dir Waves Ship Positions
date/time (UTC)wind fromknots sea level pressurealtimeterstation pressurevisibilityair tempwater tempwave heightnotes
2017-Apr-25 11:00 095 0 gusting 1 23.3
2017-Apr-25 10:00 326 0 gusting 2 23.9
2017-Apr-25 09:00 020 0 gusting 1 23.9
2017-Apr-25 08:00 314 0 gusting 1 23.9
2017-Apr-25 07:00 347 1 gusting 2 23.9
2017-Apr-25 06:00 326 1 gusting 1 24.4
2017-Apr-25 05:00 352 23.9
2017-Apr-25 04:00 332 0 gusting 1 25.0
2017-Apr-25 03:00 342 0 gusting 1 25.6
2017-Apr-25 02:00 062 0 gusting 2 25.6
2017-Apr-25 01:00 007 1 gusting 2 26.1
2017-Apr-25 00:00 033 2 gusting 6 26.7
2017-Apr-24 23:00 029 1 gusting 7 27.2
2017-Apr-24 22:00 020 6 gusting 10 27.8
2017-Apr-24 21:00 057 5 gusting 8 27.8
2017-Apr-24 20:00 281 6 gusting 13 28.9
2017-Apr-24 19:00 289 5 gusting 10 28.9
2017-Apr-24 18:00 284 4 gusting 10 28.9
2017-Apr-24 17:00 289 6 gusting 10 28.9
2017-Apr-24 16:00 254 7 gusting 10 27.2
2017-Apr-24 15:00 268 1 gusting 10 28.9
2017-Apr-24 14:00 296 3 gusting 8 27.2
2017-Apr-24 13:00 354 1 gusting 6 27.8
2017-Apr-24 12:00 26.1
2017-Apr-24 11:00 346 0 gusting 2 24.4
2017-Apr-24 10:00 311 0 gusting 4 25.0
2017-Apr-24 09:00 314 1 gusting 1 25.0
2017-Apr-24 08:00 325 0 gusting 4 25.6
2017-Apr-24 07:00 329 2 gusting 5 25.6
2017-Apr-24 06:00 314 1 gusting 6 26.1
2017-Apr-24 05:00 329 2 gusting 6 26.7
2017-Apr-24 04:00 312 2 gusting 6 26.7
2017-Apr-24 03:00 293 3 gusting 7 26.7
2017-Apr-24 02:00 297 5 gusting 6 26.7
2017-Apr-24 01:00 289 4 gusting 6 26.7
2017-Apr-24 00:00 310 4 gusting 6 27.2
2017-Apr-23 23:00 286 6 gusting 8 27.8
2017-Apr-23 22:00 315 8 gusting 11 27.8
2017-Apr-23 21:00 275 6 gusting 11 28.9
2017-Apr-23 20:00 269 6 gusting 10 28.3
2017-Apr-23 19:00 267 7 gusting 10 28.9
2017-Apr-23 18:00 230 5 gusting 10 28.3
2017-Apr-23 17:00 270 6 gusting 7 28.3
2017-Apr-23 16:00 252 5 gusting 8 28.3
2017-Apr-23 15:00 279 6 gusting 8 28.3
2017-Apr-23 14:00 284 4 gusting 6 27.8
2017-Apr-23 13:00 313 1 gusting 6 27.2
2017-Apr-23 12:00 351 0 gusting 1 25.6